Time;durP1;ratioP1;P1;durP2;ratioP2;P2;SDS_P1;SDS_P2;PMS_P1;PMS_P2;Temp;Humidity;BMP_temperature;BMP_pressure;BME280_temperature;BME280_humidity;BME280_pressure;Samples;Min_cycle;Max_cycle;Signal;HPM_P1;HPM_P2
2024/03/14 05:42:06;;;;;;;15.20;8.67;;;;;;;;;;5176375;23;20508;-76
2024/03/14 05:44:32;;;;;;;16.63;9.10;;;;;;;;;;5027661;28;20445;-77
2024/03/14 05:46:58;;;;;;;19.50;9.50;;;;;;;;;;5027047;28;20470;-73
2024/03/14 05:49:24;;;;;;;18.90;8.77;;;;;;;;;;5027437;28;20438;-75
2024/03/14 05:51:51;;;;;;;19.67;10.40;;;;;;;;;;5040943;28;20495;-76
2024/03/14 05:54:17;;;;;;;23.63;10.20;;;;;;;;;;5027212;28;20493;-75
2024/03/14 05:56:43;;;;;;;17.43;9.80;;;;;;;;;;5028931;28;20927;-75
2024/03/14 05:59:09;;;;;;;18.23;10.13;;;;;;;;;;5019130;28;20909;-75
2024/03/14 06:01:35;;;;;;;22.73;11.33;;;;;;;;;;5018742;28;20898;-75
2024/03/14 06:04:01;;;;;;;20.93;10.77;;;;;;;;;;5020615;28;20414;-75
2024/03/14 06:06:27;;;;;;;24.10;10.70;;;;;;;;;;5030798;28;20496;-75
2024/03/14 06:08:53;;;;;;;24.27;9.97;;;;;;;;;;5037109;28;20418;-75
2024/03/14 06:11:19;;;;;;;25.17;11.27;;;;;;;;;;5038931;28;20456;-75
2024/03/14 06:13:45;;;;;;;22.63;10.53;;;;;;;;;;5037814;28;20418;-75
2024/03/14 06:16:11;;;;;;;27.50;11.33;;;;;;;;;;5028302;28;20411;-75
2024/03/14 06:18:37;;;;;;;23.57;11.03;;;;;;;;;;5019180;28;20429;-75
2024/03/14 06:21:04;;;;;;;26.23;11.00;;;;;;;;;;5015320;28;20438;-75
2024/03/14 06:23:30;;;;;;;21.37;10.27;;;;;;;;;;5017231;28;20610;-75
2024/03/14 06:25:56;;;;;;;16.10;9.30;;;;;;;;;;5017084;28;20883;-75
2024/03/14 06:28:23;;;;;;;17.57;9.83;;;;;;;;;;5016160;28;20709;-75
2024/03/14 06:30:49;;;;;;;25.90;11.43;;;;;;;;;;5015942;28;20513;-75
2024/03/14 06:33:15;;;;;;;27.77;12.90;;;;;;;;;;5016321;28;20777;-75
2024/03/14 06:35:41;;;;;;;27.43;13.23;;;;;;;;;;5014181;28;20426;-75
2024/03/14 06:38:07;;;;;;;24.27;11.90;;;;;;;;;;5015501;28;20500;-75
2024/03/14 06:40:33;;;;;;;28.37;13.47;;;;;;;;;;5012796;28;20460;-73
2024/03/14 06:42:59;;;;;;;25.47;10.93;;;;;;;;;;5012746;28;20437;-75
2024/03/14 06:45:25;;;;;;;23.27;11.30;;;;;;;;;;5014861;28;20454;-75
2024/03/14 06:47:51;;;;;;;30.10;12.07;;;;;;;;;;5016645;28;20840;-74
2024/03/14 06:50:19;;;;;;;26.30;12.53;;;;;;;;;;5016625;28;20444;-74
2024/03/14 06:52:45;;;;;;;26.40;12.70;;;;;;;;;;5018514;28;20449;-74
2024/03/14 06:55:12;;;;;;;23.80;11.57;;;;;;;;;;5017991;28;20475;-76
2024/03/14 06:57:44;;;;;;;23.30;11.20;;;;;;;;;;5017841;28;20913;-75
2024/03/14 07:00:16;;;;;;;23.13;12.17;;;;;;;;;;5016379;28;20478;-74
2024/03/14 07:02:44;;;;;;;25.17;12.47;;;;;;;;;;5015642;28;20945;-75
2024/03/14 07:05:10;;;;;;;26.47;13.33;;;;;;;;;;5015208;28;20481;-74
2024/03/14 07:07:36;;;;;;;25.80;12.57;;;;;;;;;;5014195;28;20472;-75
2024/03/14 07:10:03;;;;;;;26.50;12.60;;;;;;;;;;5013965;28;20402;-74
2024/03/14 07:12:29;;;;;;;29.27;13.30;;;;;;;;;;5013685;28;20493;-75
2024/03/14 07:14:55;;;;;;;27.23;12.50;;;;;;;;;;5014002;28;20477;-74
2024/03/14 07:17:21;;;;;;;33.03;14.73;;;;;;;;;;5013127;28;20496;-74
2024/03/14 07:19:47;;;;;;;31.20;13.53;;;;;;;;;;5013025;28;20434;-75
2024/03/14 07:22:13;;;;;;;24.47;11.27;;;;;;;;;;5015804;28;20414;-74
2024/03/14 07:24:39;;;;;;;23.80;12.40;;;;;;;;;;5016623;28;20406;-74
2024/03/14 07:27:05;;;;;;;25.33;12.90;;;;;;;;;;5016429;28;20464;-75
2024/03/14 07:29:33;;;;;;;23.63;11.93;;;;;;;;;;5015665;28;20406;-75
2024/03/14 07:31:59;;;;;;;25.10;12.47;;;;;;;;;;5015148;28;20422;-75
2024/03/14 07:34:25;;;;;;;20.20;11.23;;;;;;;;;;5015327;28;20417;-75
2024/03/14 07:36:51;;;;;;;32.00;11.47;;;;;;;;;;5016077;28;20435;-74
2024/03/14 07:39:24;;;;;;;26.53;12.60;;;;;;;;;;5015500;28;20493;-74
2024/03/14 07:41:52;;;;;;;21.83;10.70;;;;;;;;;;5015718;28;20450;-74
2024/03/14 07:44:18;;;;;;;31.57;10.90;;;;;;;;;;5015608;28;20414;-75
2024/03/14 07:46:44;;;;;;;24.13;10.80;;;;;;;;;;5014204;28;20457;-75
2024/03/14 07:49:10;;;;;;;23.53;12.17;;;;;;;;;;5015562;28;20492;-75
2024/03/14 07:51:36;;;;;;;23.87;11.13;;;;;;;;;;5018954;28;20426;-75
2024/03/14 07:54:02;;;;;;;24.60;11.70;;;;;;;;;;5024261;28;20454;-75
2024/03/14 07:56:29;;;;;;;24.93;11.00;;;;;;;;;;5023818;28;20418;-75
2024/03/14 07:58:55;;;;;;;20.97;11.93;;;;;;;;;;5025424;28;20430;-75
2024/03/14 08:01:21;;;;;;;26.10;13.13;;;;;;;;;;5024950;28;20497;-75
2024/03/14 08:03:47;;;;;;;23.77;11.47;;;;;;;;;;5023941;28;20418;-75
2024/03/14 08:06:15;;;;;;;23.00;12.00;;;;;;;;;;5025511;28;20446;-75
2024/03/14 08:08:41;;;;;;;23.67;12.20;;;;;;;;;;5024312;28;20426;-75
2024/03/14 08:11:12;;;;;;;26.73;13.27;;;;;;;;;;5026432;28;20465;-75
2024/03/14 08:13:39;;;;;;;35.37;13.90;;;;;;;;;;5027646;28;20404;-75
2024/03/14 08:16:14;;;;;;;24.13;12.70;;;;;;;;;;5023480;28;20500;-75
2024/03/14 08:18:41;;;;;;;21.73;11.90;;;;;;;;;;5023999;28;20405;-74
2024/03/14 08:21:07;;;;;;;22.70;11.37;;;;;;;;;;5024551;28;20430;-74
2024/03/14 08:23:34;;;;;;;23.03;12.30;;;;;;;;;;5023764;28;20410;-75
2024/03/14 08:26:00;;;;;;;18.03;10.87;;;;;;;;;;5023087;28;20555;-75
2024/03/14 08:28:26;;;;;;;19.20;10.47;;;;;;;;;;5023651;28;20470;-75
2024/03/14 08:30:52;;;;;;;21.93;11.53;;;;;;;;;;5024256;28;20429;-75
2024/03/14 08:33:18;;;;;;;22.90;10.37;;;;;;;;;;5024415;28;20417;-75
2024/03/14 08:35:45;;;;;;;21.17;10.97;;;;;;;;;;5023977;28;20513;-75
2024/03/14 08:38:15;;;;;;;16.43;9.83;;;;;;;;;;5025066;28;20414;-75
2024/03/14 08:40:41;;;;;;;20.53;9.47;;;;;;;;;;5023156;28;20499;-75
2024/03/14 08:43:07;;;;;;;21.47;10.73;;;;;;;;;;5021866;28;20425;-75
2024/03/14 08:45:35;;;;;;;17.60;9.00;;;;;;;;;;5020427;28;20855;-75
2024/03/14 08:48:01;;;;;;;23.13;10.00;;;;;;;;;;5016201;28;20417;-75
2024/03/14 08:50:27;;;;;;;16.50;9.30;;;;;;;;;;5011486;28;20441;-75
2024/03/14 08:52:55;;;;;;;19.50;9.90;;;;;;;;;;5021191;28;20414;-75
2024/03/14 08:55:25;;;;;;;21.50;10.30;;;;;;;;;;5024126;28;20433;-75
2024/03/14 08:57:51;;;;;;;19.70;9.57;;;;;;;;;;5026018;28;20425;-75
2024/03/14 09:00:18;;;;;;;22.30;10.20;;;;;;;;;;5025049;28;20550;-75
2024/03/14 09:02:44;;;;;;;17.50;8.57;;;;;;;;;;5024852;28;20445;-75
2024/03/14 09:05:13;;;;;;;21.33;8.30;;;;;;;;;;5024587;28;20536;-76
2024/03/14 09:07:40;;;;;;;18.70;8.83;;;;;;;;;;5022731;28;20838;-76
2024/03/14 09:10:16;;;;;;;14.30;8.10;;;;;;;;;;5023113;28;20402;-76
2024/03/14 09:12:48;;;;;;;14.83;8.90;;;;;;;;;;5024901;28;20413;-76
2024/03/14 09:15:14;;;;;;;14.37;8.60;;;;;;;;;;5022601;28;20412;-75
2024/03/14 09:17:41;;;;;;;12.77;7.80;;;;;;;;;;5024834;28;20895;-74
2024/03/14 09:20:09;;;;;;;17.40;8.07;;;;;;;;;;5027868;28;22105;-74
2024/03/14 09:22:39;;;;;;;12.77;7.27;;;;;;;;;;5027538;28;20457;-74
2024/03/14 09:25:07;;;;;;;14.10;7.60;;;;;;;;;;5030120;28;20444;-75
2024/03/14 09:27:33;;;;;;;12.53;6.90;;;;;;;;;;5031492;28;20421;-75
2024/03/14 09:29:59;;;;;;;11.43;6.97;;;;;;;;;;5029559;28;20410;-74
2024/03/14 09:32:29;;;;;;;15.80;7.73;;;;;;;;;;5027549;28;20716;-75
2024/03/14 09:34:55;;;;;;;11.43;6.50;;;;;;;;;;5020083;28;20406;-75
2024/03/14 09:37:25;;;;;;;11.20;7.00;;;;;;;;;;5024459;28;20440;-75
2024/03/14 09:39:51;;;;;;;15.43;7.40;;;;;;;;;;5029862;28;20413;-74
2024/03/14 09:42:17;;;;;;;12.07;7.30;;;;;;;;;;5022529;28;20425;-75
2024/03/14 09:44:43;;;;;;;13.43;7.73;;;;;;;;;;5016732;28;20402;-75
2024/03/14 09:47:33;;;;;;;10.57;6.87;;;;;;;;;;5014264;28;20461;-75
2024/03/14 09:50:02;;;;;;;9.60;6.60;;;;;;;;;;5015742;28;20418;-75
2024/03/14 09:52:28;;;;;;;11.40;6.73;;;;;;;;;;5032610;28;20410;-75
2024/03/14 09:54:55;;;;;;;9.63;6.50;;;;;;;;;;5037913;28;20491;-75
2024/03/14 09:57:21;;;;;;;9.90;6.43;;;;;;;;;;5039151;28;20417;-75
2024/03/14 09:59:49;;;;;;;10.70;6.00;;;;;;;;;;5023014;28;20410;-74
2024/03/14 10:02:19;;;;;;;11.03;6.47;;;;;;;;;;5016313;28;20414;-74
2024/03/14 10:04:45;;;;;;;10.87;6.13;;;;;;;;;;5015967;28;20465;-74
2024/03/14 10:07:11;;;;;;;13.50;6.80;;;;;;;;;;5014167;28;20485;-74
2024/03/14 10:09:38;;;;;;;9.87;6.17;;;;;;;;;;5015182;28;20405;-74
2024/03/14 10:12:06;;;;;;;10.53;5.90;;;;;;;;;;5015007;28;20437;-74
2024/03/14 10:14:34;;;;;;;10.47;5.87;;;;;;;;;;5015080;28;20407;-75
2024/03/14 10:17:00;;;;;;;6.90;5.10;;;;;;;;;;5015206;28;20440;-75
2024/03/14 10:19:29;;;;;;;8.80;5.50;;;;;;;;;;5013584;28;20433;-75
2024/03/14 10:21:55;;;;;;;7.53;4.97;;;;;;;;;;5014511;28;20936;-76
2024/03/14 10:24:22;;;;;;;7.10;4.43;;;;;;;;;;5014839;28;20424;-75
2024/03/14 10:26:48;;;;;;;11.07;4.33;;;;;;;;;;5013435;28;20465;-75
2024/03/14 10:29:14;;;;;;;8.77;4.50;;;;;;;;;;5014302;28;20748;-75
2024/03/14 10:31:43;;;;;;;8.07;4.37;;;;;;;;;;5016651;28;20430;-75
2024/03/14 10:34:09;;;;;;;7.60;4.10;;;;;;;;;;5024798;28;20904;-75
2024/03/14 10:36:41;;;;;;;12.80;5.03;;;;;;;;;;5030035;28;20406;-75
2024/03/14 10:39:10;;;;;;;11.10;4.63;;;;;;;;;;5030486;28;20430;-75
2024/03/14 10:41:36;;;;;;;7.90;4.60;;;;;;;;;;5029794;28;20473;-75
2024/03/14 10:44:03;;;;;;;13.00;5.20;;;;;;;;;;5028704;28;20422;-75
2024/03/14 10:46:30;;;;;;;8.70;4.27;;;;;;;;;;5015420;28;20454;-75
2024/03/14 10:48:56;;;;;;;6.67;3.90;;;;;;;;;;5013677;28;20826;-75
2024/03/14 10:51:26;;;;;;;7.13;3.60;;;;;;;;;;5014760;28;20857;-75
2024/03/14 10:53:55;;;;;;;11.50;3.20;;;;;;;;;;5016736;28;20416;-75
2024/03/14 10:56:22;;;;;;;8.70;3.80;;;;;;;;;;5013251;28;20501;-75
2024/03/14 10:58:49;;;;;;;6.13;3.60;;;;;;;;;;5014169;28;20421;-75
2024/03/14 11:01:17;;;;;;;7.50;3.53;;;;;;;;;;5013860;28;20438;-74
2024/03/14 11:03:43;;;;;;;5.83;3.70;;;;;;;;;;5013896;28;20422;-75
2024/03/14 11:06:13;;;;;;;5.00;2.83;;;;;;;;;;5013599;28;20446;-75
2024/03/14 11:08:43;;;;;;;6.73;3.23;;;;;;;;;;5013909;28;20403;-74
2024/03/14 11:11:09;;;;;;;5.40;2.70;;;;;;;;;;5014064;28;20450;-75
2024/03/14 11:13:36;;;;;;;5.87;3.50;;;;;;;;;;5013764;28;20937;-75
2024/03/14 11:16:05;;;;;;;3.53;2.87;;;;;;;;;;5013764;28;20449;-75
2024/03/14 11:18:38;;;;;;;4.03;2.80;;;;;;;;;;5013513;28;20850;-75
2024/03/14 11:21:06;;;;;;;5.97;3.53;;;;;;;;;;5013440;28;20457;-74
2024/03/14 11:23:34;;;;;;;6.07;3.50;;;;;;;;;;5013385;28;20773;-75
2024/03/14 11:26:02;;;;;;;5.70;3.47;;;;;;;;;;5011819;28;20511;-75
2024/03/14 11:28:31;;;;;;;5.27;2.97;;;;;;;;;;5013116;28;20413;-74
2024/03/14 11:30:57;;;;;;;7.80;3.30;;;;;;;;;;5013086;28;20437;-76
2024/03/14 11:33:29;;;;;;;5.17;3.00;;;;;;;;;;5012077;28;20502;-74
2024/03/14 11:35:58;;;;;;;6.70;2.43;;;;;;;;;;5013643;28;20420;-76
2024/03/14 11:38:28;;;;;;;3.63;2.43;;;;;;;;;;5013673;28;20881;-76
2024/03/14 11:40:55;;;;;;;6.17;3.03;;;;;;;;;;5013145;28;20492;-74
2024/03/14 11:43:21;;;;;;;4.40;2.90;;;;;;;;;;5013257;28;20501;-76
2024/03/14 11:45:50;;;;;;;3.97;2.87;;;;;;;;;;5013043;28;20865;-75
2024/03/14 11:48:19;;;;;;;7.53;2.77;;;;;;;;;;5013029;28;20456;-74
2024/03/14 11:50:47;;;;;;;2.97;2.50;;;;;;;;;;5011473;28;20763;-74
2024/03/14 11:53:14;;;;;;;3.50;2.40;;;;;;;;;;5011601;28;20789;-74
2024/03/14 11:55:40;;;;;;;5.90;2.83;;;;;;;;;;5012313;28;20846;-75
2024/03/14 11:58:14;;;;;;;5.80;2.80;;;;;;;;;;5012444;28;20576;-74
2024/03/14 12:00:40;;;;;;;4.03;2.83;;;;;;;;;;5011226;28;20492;-74
2024/03/14 12:03:07;;;;;;;10.23;2.40;;;;;;;;;;5012590;28;20438;-75
2024/03/14 12:05:38;;;;;;;5.00;2.30;;;;;;;;;;5012531;28;20454;-75
2024/03/14 12:08:06;;;;;;;7.27;3.13;;;;;;;;;;5011629;28;20462;-75
2024/03/14 12:10:32;;;;;;;3.77;2.37;;;;;;;;;;5012385;28;20433;-75
2024/03/14 12:12:59;;;;;;;5.00;2.50;;;;;;;;;;5012413;28;20402;-75
2024/03/14 12:15:25;;;;;;;3.03;2.17;;;;;;;;;;5017657;28;20410;-75
2024/03/14 12:17:55;;;;;;;3.67;2.60;;;;;;;;;;5019553;28;20440;-75
2024/03/14 12:20:23;;;;;;;4.60;2.17;;;;;;;;;;5020051;28;20621;-75
2024/03/14 12:22:51;;;;;;;3.43;2.00;;;;;;;;;;5020999;28;20421;-75
2024/03/14 12:25:19;;;;;;;4.13;2.00;;;;;;;;;;5020371;28;20515;-75
2024/03/14 12:27:47;;;;;;;3.00;2.37;;;;;;;;;;5019445;28;20426;-75
2024/03/14 12:30:16;;;;;;;5.60;2.10;;;;;;;;;;5018569;28;20442;-75
2024/03/14 12:32:43;;;;;;;6.43;2.30;;;;;;;;;;5014311;28;20502;-75
2024/03/14 12:35:10;;;;;;;5.37;2.37;;;;;;;;;;5011635;28;20418;-75
2024/03/14 12:37:36;;;;;;;4.40;2.10;;;;;;;;;;5013582;28;20426;-75
2024/03/14 12:40:07;;;;;;;9.33;2.37;;;;;;;;;;5012729;28;20497;-75
2024/03/14 12:42:34;;;;;;;6.43;2.20;;;;;;;;;;5012892;28;20412;-75
2024/03/14 12:45:01;;;;;;;4.03;2.13;;;;;;;;;;5012221;28;20908;-75
2024/03/14 12:47:27;;;;;;;7.03;2.50;;;;;;;;;;5013103;28;20409;-76
2024/03/14 12:49:53;;;;;;;4.17;2.33;;;;;;;;;;5013645;28;20413;-76
2024/03/14 12:52:19;;;;;;;2.23;1.97;;;;;;;;;;5016449;28;20406;-75
2024/03/14 12:54:44;;;;;;;7.17;2.50;;;;;;;;;;5016406;28;20417;-75
2024/03/14 12:57:10;;;;;;;3.33;2.17;;;;;;;;;;5016106;28;20418;-75
2024/03/14 12:59:37;;;;;;;4.03;2.23;;;;;;;;;;5016915;28;20438;-75
2024/03/14 13:02:05;;;;;;;3.70;1.70;;;;;;;;;;5016771;28;20445;-75
2024/03/14 13:04:37;;;;;;;2.93;1.63;;;;;;;;;;5015825;28;20409;-75
2024/03/14 13:07:07;;;;;;;4.47;1.80;;;;;;;;;;5014672;28;20461;-75
2024/03/14 13:09:33;;;;;;;2.23;1.97;;;;;;;;;;5016370;28;20889;-75
2024/03/14 13:12:18;;;;;;;2.40;1.80;;;;;;;;;;5015837;28;20437;-75
2024/03/14 13:15:00;;;;;;;5.50;1.60;;;;;;;;;;5017221;28;20402;-75
2024/03/14 13:17:27;;;;;;;1.80;1.40;;;;;;;;;;5016445;28;20406;-75
2024/03/14 13:19:56;;;;;;;3.23;1.53;;;;;;;;;;5015821;28;20453;-75
2024/03/14 13:22:23;;;;;;;8.60;1.67;;;;;;;;;;5015548;28;20402;-75
2024/03/14 13:24:54;;;;;;;3.00;1.90;;;;;;;;;;5015692;28;20406;-76
2024/03/14 13:27:20;;;;;;;4.70;1.60;;;;;;;;;;5015316;28;20777;-76
2024/03/14 13:29:47;;;;;;;3.50;2.00;;;;;;;;;;5015230;28;20413;-75
2024/03/14 13:32:14;;;;;;;3.90;1.70;;;;;;;;;;5015196;28;20773;-75
2024/03/14 13:34:43;;;;;;;2.77;1.70;;;;;;;;;;5015377;28;20406;-75
2024/03/14 13:37:09;;;;;;;2.67;1.70;;;;;;;;;;5015299;28;20501;-75
2024/03/14 13:39:35;;;;;;;3.63;1.77;;;;;;;;;;5015524;28;20940;-75
2024/03/14 13:42:02;;;;;;;3.33;1.73;;;;;;;;;;5014013;28;20548;-74
2024/03/14 13:44:33;;;;;;;2.00;1.40;;;;;;;;;;5015400;28;20773;-75
2024/03/14 13:47:02;;;;;;;4.03;1.03;;;;;;;;;;5015377;28;20462;-75
2024/03/14 13:49:34;;;;;;;2.50;1.23;;;;;;;;;;5015355;28;20464;-75
2024/03/14 13:52:03;;;;;;;3.07;1.60;;;;;;;;;;5015328;28;20476;-75
2024/03/14 13:54:29;;;;;;;2.93;1.73;;;;;;;;;;5014926;28;20442;-75
2024/03/14 13:56:55;;;;;;;2.50;1.37;;;;;;;;;;5013038;28;20525;-75
2024/03/14 13:59:21;;;;;;;1.30;1.20;;;;;;;;;;5012987;28;20414;-75
2024/03/14 14:01:47;;;;;;;2.77;1.77;;;;;;;;;;5013241;28;20449;-75
2024/03/14 14:04:13;;;;;;;3.67;1.50;;;;;;;;;;5014506;28;20422;-75
2024/03/14 14:06:40;;;;;;;1.70;1.20;;;;;;;;;;5013850;28;20454;-75
2024/03/14 14:09:07;;;;;;;2.43;1.57;;;;;;;;;;5014261;28;20442;-75
2024/03/14 14:11:36;;;;;;;1.97;1.40;;;;;;;;;;5014165;28;20516;-75
2024/03/14 14:14:02;;;;;;;5.53;1.43;;;;;;;;;;5013007;28;20440;-74
2024/03/14 14:16:28;;;;;;;2.67;1.60;;;;;;;;;;5013964;28;20962;-75
2024/03/14 14:18:54;;;;;;;1.60;1.20;;;;;;;;;;5012563;28;20489;-74
2024/03/14 14:21:20;;;;;;;2.17;1.20;;;;;;;;;;5012678;28;20477;-75
2024/03/14 14:23:46;;;;;;;1.70;1.50;;;;;;;;;;5014582;28;20418;-74
2024/03/14 14:26:13;;;;;;;1.80;1.30;;;;;;;;;;5014041;28;20492;-75
2024/03/14 14:28:43;;;;;;;2.00;1.70;;;;;;;;;;5014104;28;20910;-74
2024/03/14 14:31:13;;;;;;;4.17;1.63;;;;;;;;;;5017627;28;20418;-75
2024/03/14 14:33:40;;;;;;;2.50;1.40;;;;;;;;;;5038626;28;20398;-74
2024/03/14 14:36:06;;;;;;;5.57;1.33;;;;;;;;;;5038393;28;20413;-74
2024/03/14 14:38:33;;;;;;;1.77;1.20;;;;;;;;;;5030178;28;20501;-75
2024/03/14 14:40:59;;;;;;;1.50;1.20;;;;;;;;;;5014741;28;20628;-76
2024/03/14 14:43:26;;;;;;;4.20;1.50;;;;;;;;;;5013031;28;20437;-75
2024/03/14 14:45:55;;;;;;;4.93;1.47;;;;;;;;;;5014149;28;20561;-75
2024/03/14 14:48:22;;;;;;;1.90;1.30;;;;;;;;;;5013664;28;20434;-75
2024/03/14 14:50:48;;;;;;;2.43;1.80;;;;;;;;;;5013636;28;20427;-75
2024/03/14 14:53:16;;;;;;;2.13;1.47;;;;;;;;;;5013820;28;20406;-75
2024/03/14 14:55:43;;;;;;;2.27;1.30;;;;;;;;;;5013369;28;20480;-75
2024/03/14 14:58:12;;;;;;;2.10;1.40;;;;;;;;;;5013711;28;20419;-75
2024/03/14 15:00:38;;;;;;;3.70;1.27;;;;;;;;;;5013299;28;20437;-75
2024/03/14 15:03:06;;;;;;;2.57;1.60;;;;;;;;;;5013569;28;20893;-75
2024/03/14 15:05:32;;;;;;;2.93;1.57;;;;;;;;;;5012656;28;20464;-75
2024/03/14 15:07:57;;;;;;;3.60;1.40;;;;;;;;;;5012880;28;20417;-75
2024/03/14 15:10:23;;;;;;;4.87;1.63;;;;;;;;;;5013470;28;20430;-75
2024/03/14 15:12:50;;;;;;;4.23;1.50;;;;;;;;;;5012864;28;20406;-75
2024/03/14 15:15:21;;;;;;;4.20;1.70;;;;;;;;;;5011415;28;20943;-75
2024/03/14 15:17:50;;;;;;;5.43;2.23;;;;;;;;;;5011702;28;20421;-74
2024/03/14 15:20:20;;;;;;;6.37;1.33;;;;;;;;;;5012871;28;20445;-75
2024/03/14 15:22:47;;;;;;;6.30;2.00;;;;;;;;;;5011941;28;20504;-75
2024/03/14 15:25:16;;;;;;;3.20;1.30;;;;;;;;;;5012384;28;20441;-75
2024/03/14 15:27:44;;;;;;;4.20;1.50;;;;;;;;;;5011435;28;20426;-75
2024/03/14 15:30:11;;;;;;;4.37;1.20;;;;;;;;;;5012644;28;20441;-75
2024/03/14 15:32:42;;;;;;;1.87;1.47;;;;;;;;;;5012710;28;21021;-74
2024/03/14 15:35:08;;;;;;;3.03;1.23;;;;;;;;;;5012384;28;20411;-74
2024/03/14 15:37:35;;;;;;;1.47;1.10;;;;;;;;;;5012573;28;20399;-74
2024/03/14 15:40:02;;;;;;;3.70;1.40;;;;;;;;;;5012576;28;20410;-75
2024/03/14 15:42:28;;;;;;;3.27;1.70;;;;;;;;;;5012560;28;20780;-75
2024/03/14 15:44:56;;;;;;;4.03;1.60;;;;;;;;;;5012627;28;20505;-74
2024/03/14 15:47:22;;;;;;;4.93;1.60;;;;;;;;;;5012169;28;20530;-74
2024/03/14 15:49:50;;;;;;;2.20;1.43;;;;;;;;;;5012338;28;20905;-74
2024/03/14 15:52:16;;;;;;;2.67;1.37;;;;;;;;;;5012265;28;20410;-74
2024/03/14 15:54:42;;;;;;;2.57;1.63;;;;;;;;;;5011252;28;20429;-73
2024/03/14 15:57:09;;;;;;;2.20;1.50;;;;;;;;;;5012028;28;20449;-75
2024/03/14 15:59:38;;;;;;;3.20;1.37;;;;;;;;;;5012480;28;20418;-74
2024/03/14 16:02:06;;;;;;;1.80;1.40;;;;;;;;;;5011940;28;20460;-74
2024/03/14 16:04:32;;;;;;;2.57;1.60;;;;;;;;;;5012305;28;20410;-75
2024/03/14 16:06:58;;;;;;;4.57;1.43;;;;;;;;;;5010589;28;20536;-74
2024/03/14 16:09:25;;;;;;;1.87;1.40;;;;;;;;;;5012140;28;20900;-74
2024/03/14 16:11:51;;;;;;;9.20;1.50;;;;;;;;;;5010792;28;20624;-74
2024/03/14 16:14:18;;;;;;;2.07;1.10;;;;;;;;;;5011783;28;20418;-74
2024/03/14 16:16:44;;;;;;;3.43;1.57;;;;;;;;;;5011790;28;20786;-74
2024/03/14 16:19:15;;;;;;;1.83;1.50;;;;;;;;;;5011750;28;20414;-74
2024/03/14 16:21:44;;;;;;;3.10;1.20;;;;;;;;;;5011891;28;20434;-74
2024/03/14 16:24:11;;;;;;;4.77;1.70;;;;;;;;;;5011299;28;20496;-76
2024/03/14 16:26:38;;;;;;;2.57;1.80;;;;;;;;;;5011403;28;20462;-74
2024/03/14 16:29:04;;;;;;;1.97;1.47;;;;;;;;;;5011722;28;20417;-74
2024/03/14 16:31:30;;;;;;;1.53;1.00;;;;;;;;;;5011647;28;20430;-75
2024/03/14 16:33:57;;;;;;;3.93;1.43;;;;;;;;;;5011681;28;20515;-76
2024/03/14 16:36:24;;;;;;;3.00;1.67;;;;;;;;;;5011676;28;20881;-74
2024/03/14 16:38:50;;;;;;;1.97;1.47;;;;;;;;;;5010824;28;20414;-75
2024/03/14 16:41:19;;;;;;;4.17;1.40;;;;;;;;;;5011373;28;20456;-75
2024/03/14 16:43:45;;;;;;;3.30;1.97;;;;;;;;;;5011972;28;20512;-74
2024/03/14 16:46:12;;;;;;;3.00;1.30;;;;;;;;;;5011911;28;20457;-74
2024/03/14 16:48:41;;;;;;;3.53;1.50;;;;;;;;;;5012030;28;20445;-75
2024/03/14 16:51:08;;;;;;;2.57;1.57;;;;;;;;;;5010493;28;20437;-74
2024/03/14 16:53:37;;;;;;;2.30;1.30;;;;;;;;;;5012356;28;20569;-74
2024/03/14 16:56:03;;;;;;;3.47;2.00;;;;;;;;;;5011416;28;20904;-74
2024/03/14 16:58:29;;;;;;;4.00;1.73;;;;;;;;;;5011825;28;20418;-75
2024/03/14 17:00:56;;;;;;;2.63;1.83;;;;;;;;;;5011441;28;20513;-75
2024/03/14 17:03:25;;;;;;;2.40;1.50;;;;;;;;;;5022156;28;20406;-74
2024/03/14 17:05:52;;;;;;;4.30;1.93;;;;;;;;;;5022955;28;20457;-73
2024/03/14 17:08:19;;;;;;;3.00;1.63;;;;;;;;;;5012360;28;20414;-74
2024/03/14 17:10:45;;;;;;;3.53;1.93;;;;;;;;;;5010129;28;20435;-74
2024/03/14 17:13:11;;;;;;;3.13;1.93;;;;;;;;;;5011564;28;20417;-75
2024/03/14 17:15:41;;;;;;;6.47;1.70;;;;;;;;;;5009901;28;20853;-74
2024/03/14 17:18:11;;;;;;;4.10;2.00;;;;;;;;;;5020346;28;20969;-75
2024/03/14 17:20:37;;;;;;;4.13;2.20;;;;;;;;;;5015499;28;20455;-75
2024/03/14 17:23:03;;;;;;;4.37;1.90;;;;;;;;;;5011552;28;20418;-73
2024/03/14 17:25:29;;;;;;;10.07;3.17;;;;;;;;;;5011175;28;20871;-73
2024/03/14 17:27:55;;;;;;;6.07;2.53;;;;;;;;;;5010906;28;20449;-73
2024/03/14 17:30:25;;;;;;;3.33;2.50;;;;;;;;;;5021647;28;20486;-74
2024/03/14 17:32:51;;;;;;;9.60;2.37;;;;;;;;;;5031173;28;20897;-73
2024/03/14 17:35:18;;;;;;;8.00;4.07;;;;;;;;;;5030546;28;20424;-74
2024/03/14 17:37:44;;;;;;;6.90;3.03;;;;;;;;;;5034301;28;20412;-73
2024/03/14 17:40:16;;;;;;;7.60;4.23;;;;;;;;;;5033217;28;20874;-74
2024/03/14 17:42:43;;;;;;;5.67;3.17;;;;;;;;;;5026153;28;20450;-74
2024/03/14 17:45:12;;;;;;;8.23;3.17;;;;;;;;;;5015546;28;20464;-73
2024/03/14 17:47:38;;;;;;;2.57;2.20;;;;;;;;;;5018112;28;20445;-73
2024/03/14 17:50:05;;;;;;;5.93;2.20;;;;;;;;;;5005120;28;20422;-73
2024/03/14 17:52:31;;;;;;;9.60;2.40;;;;;;;;;;5013373;28;20421;-73
2024/03/14 17:54:57;;;;;;;6.57;2.60;;;;;;;;;;5016673;28;20406;-73
2024/03/14 17:57:25;;;;;;;4.03;2.40;;;;;;;;;;5016124;28;20529;-74
2024/03/14 17:59:51;;;;;;;8.90;3.70;;;;;;;;;;5012864;28;20429;-76
2024/03/14 18:02:17;;;;;;;6.33;3.30;;;;;;;;;;5013744;28;20913;-77
2024/03/14 18:04:44;;;;;;;6.43;4.00;;;;;;;;;;5012156;28;20590;-77
2024/03/14 18:07:10;;;;;;;6.00;3.10;;;;;;;;;;4996074;28;20517;-76
2024/03/14 18:09:36;;;;;;;2.87;2.30;;;;;;;;;;5012855;28;20413;-76
2024/03/14 18:12:03;;;;;;;6.60;2.57;;;;;;;;;;5016266;28;20955;-76
2024/03/14 18:14:29;;;;;;;3.50;2.40;;;;;;;;;;5030278;28;20418;-77
2024/03/14 18:16:56;;;;;;;4.80;3.20;;;;;;;;;;5038254;28;20465;-77
2024/03/14 18:19:22;;;;;;;5.47;3.23;;;;;;;;;;5034047;28;20418;-76
2024/03/14 18:21:49;;;;;;;5.00;2.70;;;;;;;;;;5027710;28;20473;-76
2024/03/14 18:24:15;;;;;;;3.27;2.60;;;;;;;;;;5027810;28;20510;-77
2024/03/14 18:26:43;;;;;;;8.37;4.20;;;;;;;;;;5031372;28;20470;-80
2024/03/14 18:29:09;;;;;;;7.67;3.33;;;;;;;;;;5033091;28;20460;-82
2024/03/14 18:31:35;;;;;;;7.30;3.00;;;;;;;;;;5029913;28;20476;-78
2024/03/14 18:34:01;;;;;;;8.73;3.60;;;;;;;;;;5029625;28;20406;-77
2024/03/14 18:36:27;;;;;;;8.50;3.70;;;;;;;;;;5023129;28;20438;-76
2024/03/14 18:38:54;;;;;;;10.70;3.97;;;;;;;;;;5017747;28;20426;-73
2024/03/14 18:41:20;;;;;;;4.83;3.37;;;;;;;;;;5009282;28;20454;-73
2024/03/14 18:43:47;;;;;;;5.80;3.40;;;;;;;;;;5029016;28;20424;-76
2024/03/14 18:46:13;;;;;;;6.87;3.50;;;;;;;;;;5052389;28;20492;-76
2024/03/14 18:48:40;;;;;;;7.57;3.50;;;;;;;;;;5050527;28;20497;-75
2024/03/14 18:51:06;;;;;;;11.27;4.53;;;;;;;;;;5049036;28;20433;-75
2024/03/14 18:53:32;;;;;;;14.07;5.03;;;;;;;;;;5044388;28;20481;-75
2024/03/14 18:55:59;;;;;;;7.87;4.30;;;;;;;;;;5034634;28;20425;-75
2024/03/14 18:58:27;;;;;;;11.80;4.27;;;;;;;;;;5030937;28;20475;-75
2024/03/14 19:00:54;;;;;;;8.37;5.07;;;;;;;;;;5012402;28;20528;-77
2024/03/14 19:03:21;;;;;;;9.17;5.13;;;;;;;;;;5020729;28;20425;-77
2024/03/14 19:05:47;;;;;;;12.20;3.97;;;;;;;;;;5015137;28;20458;-77
2024/03/14 19:08:19;;;;;;;8.40;4.67;;;;;;;;;;5014829;28;20413;-77
2024/03/14 19:10:45;;;;;;;11.13;5.23;;;;;;;;;;5021187;28;20422;-77
2024/03/14 19:13:13;;;;;;;13.57;5.37;;;;;;;;;;5022672;28;20433;-77
2024/03/14 19:15:40;;;;;;;11.00;5.30;;;;;;;;;;5020059;28;20421;-77
2024/03/14 19:18:06;;;;;;;8.83;5.07;;;;;;;;;;5026373;28;20426;-77
2024/03/14 19:20:32;;;;;;;11.60;5.97;;;;;;;;;;5027226;28;20442;-78
2024/03/14 19:23:01;;;;;;;9.70;5.13;;;;;;;;;;5021731;28;20418;-77
2024/03/14 19:25:28;;;;;;;11.90;5.30;;;;;;;;;;5020077;28;20430;-78
2024/03/14 19:27:54;;;;;;;15.07;5.13;;;;;;;;;;5019272;28;20422;-78
2024/03/14 19:30:23;;;;;;;17.57;5.40;;;;;;;;;;5020060;28;20437;-78
2024/03/14 19:32:49;;;;;;;9.20;4.70;;;;;;;;;;5023971;28;20425;-78
2024/03/14 19:35:15;;;;;;;14.20;5.63;;;;;;;;;;5021850;28;20509;-78
2024/03/14 19:37:41;;;;;;;10.13;4.97;;;;;;;;;;5018211;28;20441;-78
2024/03/14 19:40:08;;;;;;;7.10;4.80;;;;;;;;;;5023137;28;20421;-79
2024/03/14 19:42:35;;;;;;;8.27;5.10;;;;;;;;;;5029133;28;20413;-79
2024/03/14 19:45:07;;;;;;;9.43;5.13;;;;;;;;;;5027723;28;20436;-79
2024/03/14 19:47:44;;;;;;;8.03;5.30;;;;;;;;;;5028155;28;20414;-79
2024/03/14 19:50:10;;;;;;;7.57;4.83;;;;;;;;;;5026417;28;20430;-79
2024/03/14 19:52:36;;;;;;;9.17;5.20;;;;;;;;;;5027090;28;20411;-78
2024/03/14 19:55:03;;;;;;;12.53;5.53;;;;;;;;;;5025881;28;20404;-78
2024/03/14 19:57:30;;;;;;;8.83;5.40;;;;;;;;;;5024216;28;20437;-79
2024/03/14 19:59:58;;;;;;;12.50;5.40;;;;;;;;;;5020443;28;20418;-78
2024/03/14 20:02:23;;;;;;;12.53;5.90;;;;;;;;;;5022864;28;20536;-79
2024/03/14 20:04:51;;;;;;;9.93;5.93;;;;;;;;;;5026755;28;20410;-79
2024/03/14 20:07:17;;;;;;;7.93;5.40;;;;;;;;;;5023828;28;20473;-78
2024/03/14 20:09:43;;;;;;;11.40;6.23;;;;;;;;;;5026868;28;20430;-78
2024/03/14 20:12:09;;;;;;;19.40;5.20;;;;;;;;;;5025715;28;20433;-79
2024/03/14 20:14:36;;;;;;;13.03;5.90;;;;;;;;;;5023816;28;20422;-79
2024/03/14 20:17:02;;;;;;;13.67;6.13;;;;;;;;;;5026542;28;20419;-79